sensor_id;sensor_type;location;lat;lon;timestamp;P1;durP1;ratioP1;P2;durP2;ratioP2
40122;SDS011;25832;45.490;4.912;2023-03-30T00:01:30;21.45;;;9.15;;
40122;SDS011;25832;45.490;4.912;2023-03-30T00:03:56;19.90;;;7.80;;
40122;SDS011;25832;45.490;4.912;2023-03-30T00:06:22;18.85;;;8.82;;
40122;SDS011;25832;45.490;4.912;2023-03-30T00:08:49;19.45;;;7.82;;
40122;SDS011;25832;45.490;4.912;2023-03-30T00:11:23;16.58;;;8.00;;
40122;SDS011;25832;45.490;4.912;2023-03-30T00:13:49;17.08;;;8.57;;
40122;SDS011;25832;45.490;4.912;2023-03-30T00:16:15;19.02;;;8.27;;
40122;SDS011;25832;45.490;4.912;2023-03-30T00:18:42;23.50;;;8.02;;
40122;SDS011;25832;45.490;4.912;2023-03-30T00:21:09;13.98;;;8.45;;
40122;SDS011;25832;45.490;4.912;2023-03-30T00:23:35;24.80;;;8.15;;
40122;SDS011;25832;45.490;4.912;2023-03-30T00:26:02;21.90;;;8.00;;
40122;SDS011;25832;45.490;4.912;2023-03-30T00:28:28;16.17;;;6.90;;
40122;SDS011;25832;45.490;4.912;2023-03-30T00:30:55;16.08;;;7.07;;
40122;SDS011;25832;45.490;4.912;2023-03-30T00:33:21;17.10;;;8.55;;
40122;SDS011;25832;45.490;4.912;2023-03-30T00:35:50;20.55;;;7.10;;
40122;SDS011;25832;45.490;4.912;2023-03-30T00:38:17;22.40;;;8.85;;
40122;SDS011;25832;45.490;4.912;2023-03-30T00:40:49;18.65;;;7.70;;
40122;SDS011;25832;45.490;4.912;2023-03-30T00:43:19;14.63;;;7.40;;
40122;SDS011;25832;45.490;4.912;2023-03-30T00:45:46;18.92;;;6.97;;
40122;SDS011;25832;45.490;4.912;2023-03-30T00:48:13;13.25;;;6.32;;
40122;SDS011;25832;45.490;4.912;2023-03-30T00:51:05;14.82;;;7.70;;
40122;SDS011;25832;45.490;4.912;2023-03-30T00:53:35;21.08;;;7.80;;
40122;SDS011;25832;45.490;4.912;2023-03-30T00:56:13;16.42;;;6.43;;
40122;SDS011;25832;45.490;4.912;2023-03-30T00:58:41;16.00;;;5.70;;
40122;SDS011;25832;45.490;4.912;2023-03-30T01:01:09;12.85;;;5.75;;
40122;SDS011;25832;45.490;4.912;2023-03-30T01:03:41;12.80;;;5.78;;
40122;SDS011;25832;45.490;4.912;2023-03-30T01:06:10;11.65;;;5.55;;
40122;SDS011;25832;45.490;4.912;2023-03-30T01:08:36;12.82;;;6.43;;
40122;SDS011;25832;45.490;4.912;2023-03-30T01:11:04;13.60;;;6.22;;
40122;SDS011;25832;45.490;4.912;2023-03-30T01:13:32;20.02;;;6.72;;
40122;SDS011;25832;45.490;4.912;2023-03-30T01:26:58;12.70;;;5.38;;
40122;SDS011;25832;45.490;4.912;2023-03-30T01:41:08;9.82;;;3.60;;
40122;SDS011;25832;45.490;4.912;2023-03-30T01:44:24;6.53;;;4.20;;
40122;SDS011;25832;45.490;4.912;2023-03-30T01:47:16;17.48;;;3.92;;
40122;SDS011;25832;45.490;4.912;2023-03-30T01:55:02;10.38;;;3.80;;
40122;SDS011;25832;45.490;4.912;2023-03-30T02:00:08;11.35;;;3.13;;
40122;SDS011;25832;45.490;4.912;2023-03-30T02:02:42;6.15;;;2.75;;
40122;SDS011;25832;45.490;4.912;2023-03-30T02:05:12;7.00;;;2.95;;
40122;SDS011;25832;45.490;4.912;2023-03-30T02:07:42;6.63;;;2.97;;
40122;SDS011;25832;45.490;4.912;2023-03-30T02:10:13;11.23;;;2.38;;
40122;SDS011;25832;45.490;4.912;2023-03-30T02:12:43;7.93;;;2.90;;
40122;SDS011;25832;45.490;4.912;2023-03-30T02:15:09;4.40;;;2.13;;
40122;SDS011;25832;45.490;4.912;2023-03-30T02:17:38;4.38;;;2.55;;
40122;SDS011;25832;45.490;4.912;2023-03-30T02:20:06;7.13;;;2.53;;
40122;SDS011;25832;45.490;4.912;2023-03-30T02:22:36;5.18;;;2.08;;
40122;SDS011;25832;45.490;4.912;2023-03-30T02:25:03;3.30;;;2.25;;
40122;SDS011;25832;45.490;4.912;2023-03-30T02:27:30;6.78;;;1.95;;
40122;SDS011;25832;45.490;4.912;2023-03-30T02:29:57;5.63;;;1.80;;
40122;SDS011;25832;45.490;4.912;2023-03-30T02:32:24;5.30;;;1.70;;
40122;SDS011;25832;45.490;4.912;2023-03-30T02:40:19;4.32;;;1.67;;
40122;SDS011;25832;45.490;4.912;2023-03-30T02:43:03;5.93;;;1.77;;
40122;SDS011;25832;45.490;4.912;2023-03-30T02:54:09;4.32;;;1.63;;
40122;SDS011;25832;45.490;4.912;2023-03-30T02:59:20;4.60;;;1.40;;
40122;SDS011;25832;45.490;4.912;2023-03-30T03:01:54;8.15;;;2.08;;
40122;SDS011;25832;45.490;4.912;2023-03-30T03:04:25;2.83;;;1.45;;
40122;SDS011;25832;45.490;4.912;2023-03-30T03:06:52;4.05;;;1.48;;
40122;SDS011;25832;45.490;4.912;2023-03-30T03:09:19;4.75;;;1.63;;
40122;SDS011;25832;45.490;4.912;2023-03-30T03:11:49;2.92;;;1.40;;
40122;SDS011;25832;45.490;4.912;2023-03-30T03:14:16;4.13;;;1.90;;
40122;SDS011;25832;45.490;4.912;2023-03-30T03:16:42;6.88;;;1.65;;
40122;SDS011;25832;45.490;4.912;2023-03-30T03:19:08;4.85;;;1.75;;
40122;SDS011;25832;45.490;4.912;2023-03-30T03:21:34;6.25;;;2.60;;
40122;SDS011;25832;45.490;4.912;2023-03-30T03:24:00;3.50;;;1.17;;
40122;SDS011;25832;45.490;4.912;2023-03-30T03:26:27;4.10;;;1.60;;
40122;SDS011;25832;45.490;4.912;2023-03-30T03:28:52;1.30;;;1.10;;
40122;SDS011;25832;45.490;4.912;2023-03-30T03:31:18;2.97;;;1.60;;
40122;SDS011;25832;45.490;4.912;2023-03-30T03:33:44;4.82;;;1.45;;
40122;SDS011;25832;45.490;4.912;2023-03-30T03:36:09;4.38;;;1.80;;
40122;SDS011;25832;45.490;4.912;2023-03-30T03:38:36;6.25;;;1.17;;
40122;SDS011;25832;45.490;4.912;2023-03-30T03:41:02;3.60;;;1.23;;
40122;SDS011;25832;45.490;4.912;2023-03-30T03:43:28;4.25;;;1.20;;
40122;SDS011;25832;45.490;4.912;2023-03-30T03:45:53;2.38;;;1.60;;
40122;SDS011;25832;45.490;4.912;2023-03-30T03:48:20;2.65;;;1.20;;
40122;SDS011;25832;45.490;4.912;2023-03-30T03:50:49;4.88;;;1.30;;
40122;SDS011;25832;45.490;4.912;2023-03-30T03:53:20;3.30;;;1.27;;
40122;SDS011;25832;45.490;4.912;2023-03-30T03:55:46;4.65;;;1.15;;
40122;SDS011;25832;45.490;4.912;2023-03-30T03:58:12;4.93;;;1.23;;
40122;SDS011;25832;45.490;4.912;2023-03-30T04:00:38;3.88;;;1.20;;
40122;SDS011;25832;45.490;4.912;2023-03-30T04:03:05;2.45;;;1.05;;
40122;SDS011;25832;45.490;4.912;2023-03-30T04:05:31;1.65;;;0.88;;
40122;SDS011;25832;45.490;4.912;2023-03-30T04:07:57;4.70;;;0.85;;
40122;SDS011;25832;45.490;4.912;2023-03-30T04:10:23;1.58;;;0.73;;
40122;SDS011;25832;45.490;4.912;2023-03-30T04:12:49;2.15;;;1.20;;
40122;SDS011;25832;45.490;4.912;2023-03-30T04:15:15;2.90;;;0.90;;
40122;SDS011;25832;45.490;4.912;2023-03-30T04:17:40;3.70;;;1.05;;
40122;SDS011;25832;45.490;4.912;2023-03-30T04:20:08;4.32;;;1.30;;
40122;SDS011;25832;45.490;4.912;2023-03-30T04:22:37;2.17;;;0.90;;
40122;SDS011;25832;45.490;4.912;2023-03-30T04:25:09;6.50;;;1.20;;
40122;SDS011;25832;45.490;4.912;2023-03-30T04:27:39;6.00;;;1.27;;
40122;SDS011;25832;45.490;4.912;2023-03-30T04:30:07;2.50;;;0.80;;
40122;SDS011;25832;45.490;4.912;2023-03-30T04:32:34;4.43;;;1.00;;
40122;SDS011;25832;45.490;4.912;2023-03-30T04:35:05;3.03;;;1.63;;
40122;SDS011;25832;45.490;4.912;2023-03-30T04:37:35;2.97;;;1.02;;
40122;SDS011;25832;45.490;4.912;2023-03-30T04:40:02;5.43;;;0.85;;
40122;SDS011;25832;45.490;4.912;2023-03-30T04:42:33;5.85;;;1.35;;
40122;SDS011;25832;45.490;4.912;2023-03-30T04:45:06;1.60;;;0.98;;
40122;SDS011;25832;45.490;4.912;2023-03-30T04:47:33;5.78;;;1.20;;
40122;SDS011;25832;45.490;4.912;2023-03-30T04:49:59;3.92;;;1.00;;
40122;SDS011;25832;45.490;4.912;2023-03-30T04:52:25;4.50;;;1.35;;
40122;SDS011;25832;45.490;4.912;2023-03-30T04:54:52;3.60;;;1.05;;
40122;SDS011;25832;45.490;4.912;2023-03-30T04:57:18;1.98;;;0.93;;
40122;SDS011;25832;45.490;4.912;2023-03-30T04:59:45;3.95;;;1.35;;
40122;SDS011;25832;45.490;4.912;2023-03-30T05:02:11;4.47;;;1.15;;
40122;SDS011;25832;45.490;4.912;2023-03-30T05:04:38;7.28;;;1.00;;
40122;SDS011;25832;45.490;4.912;2023-03-30T05:07:05;6.53;;;1.10;;
40122;SDS011;25832;45.490;4.912;2023-03-30T05:09:31;8.20;;;1.33;;
40122;SDS011;25832;45.490;4.912;2023-03-30T05:11:57;4.18;;;1.58;;
40122;SDS011;25832;45.490;4.912;2023-03-30T05:14:23;6.15;;;1.38;;
40122;SDS011;25832;45.490;4.912;2023-03-30T05:16:48;5.82;;;1.30;;
40122;SDS011;25832;45.490;4.912;2023-03-30T05:19:14;4.93;;;1.45;;
40122;SDS011;25832;45.490;4.912;2023-03-30T05:21:40;4.20;;;1.05;;
40122;SDS011;25832;45.490;4.912;2023-03-30T05:24:05;3.70;;;1.40;;
40122;SDS011;25832;45.490;4.912;2023-03-30T05:26:31;3.17;;;1.73;;
40122;SDS011;25832;45.490;4.912;2023-03-30T05:28:57;3.80;;;1.40;;
40122;SDS011;25832;45.490;4.912;2023-03-30T05:31:23;4.35;;;1.55;;
40122;SDS011;25832;45.490;4.912;2023-03-30T05:33:49;5.20;;;1.70;;
40122;SDS011;25832;45.490;4.912;2023-03-30T05:36:16;4.30;;;1.30;;
40122;SDS011;25832;45.490;4.912;2023-03-30T05:38:42;5.70;;;1.50;;
40122;SDS011;25832;45.490;4.912;2023-03-30T05:41:08;3.20;;;1.17;;
40122;SDS011;25832;45.490;4.912;2023-03-30T05:43:34;1.75;;;1.10;;
40122;SDS011;25832;45.490;4.912;2023-03-30T05:46:00;5.18;;;1.40;;
40122;SDS011;25832;45.490;4.912;2023-03-30T05:48:27;2.13;;;1.05;;
40122;SDS011;25832;45.490;4.912;2023-03-30T05:50:53;4.53;;;1.20;;
40122;SDS011;25832;45.490;4.912;2023-03-30T05:53:19;5.47;;;1.60;;
40122;SDS011;25832;45.490;4.912;2023-03-30T05:55:46;3.72;;;1.13;;
40122;SDS011;25832;45.490;4.912;2023-03-30T05:58:13;6.18;;;1.55;;
40122;SDS011;25832;45.490;4.912;2023-03-30T06:00:40;5.95;;;1.70;;
40122;SDS011;25832;45.490;4.912;2023-03-30T06:03:07;5.50;;;1.25;;
40122;SDS011;25832;45.490;4.912;2023-03-30T06:05:34;5.40;;;1.85;;
40122;SDS011;25832;45.490;4.912;2023-03-30T06:08:05;4.25;;;1.20;;
40122;SDS011;25832;45.490;4.912;2023-03-30T06:10:32;2.80;;;1.55;;
40122;SDS011;25832;45.490;4.912;2023-03-30T06:12:58;4.45;;;1.55;;
40122;SDS011;25832;45.490;4.912;2023-03-30T06:15:24;3.35;;;1.08;;
40122;SDS011;25832;45.490;4.912;2023-03-30T06:17:50;3.53;;;1.50;;
40122;SDS011;25832;45.490;4.912;2023-03-30T06:20:16;2.92;;;1.20;;
40122;SDS011;25832;45.490;4.912;2023-03-30T06:22:45;2.90;;;1.25;;
40122;SDS011;25832;45.490;4.912;2023-03-30T06:25:15;3.85;;;1.08;;
40122;SDS011;25832;45.490;4.912;2023-03-30T06:27:41;4.78;;;1.25;;
40122;SDS011;25832;45.490;4.912;2023-03-30T06:30:07;2.60;;;1.23;;
40122;SDS011;25832;45.490;4.912;2023-03-30T06:32:36;4.10;;;1.20;;
40122;SDS011;25832;45.490;4.912;2023-03-30T06:35:02;8.30;;;1.75;;
40122;SDS011;25832;45.490;4.912;2023-03-30T06:37:29;4.63;;;1.55;;
40122;SDS011;25832;45.490;4.912;2023-03-30T06:39:56;2.00;;;1.20;;
40122;SDS011;25832;45.490;4.912;2023-03-30T06:42:22;4.10;;;1.58;;
40122;SDS011;25832;45.490;4.912;2023-03-30T06:44:50;2.35;;;1.35;;
40122;SDS011;25832;45.490;4.912;2023-03-30T06:47:16;5.65;;;1.58;;
40122;SDS011;25832;45.490;4.912;2023-03-30T06:49:42;4.55;;;1.60;;
40122;SDS011;25832;45.490;4.912;2023-03-30T06:52:09;2.33;;;1.30;;
40122;SDS011;25832;45.490;4.912;2023-03-30T06:54:35;7.65;;;2.05;;
40122;SDS011;25832;45.490;4.912;2023-03-30T06:57:01;2.75;;;1.15;;
40122;SDS011;25832;45.490;4.912;2023-03-30T06:59:26;3.53;;;1.30;;
40122;SDS011;25832;45.490;4.912;2023-03-30T07:01:52;2.38;;;1.05;;
40122;SDS011;25832;45.490;4.912;2023-03-30T07:04:18;3.88;;;1.15;;
40122;SDS011;25832;45.490;4.912;2023-03-30T07:06:43;4.57;;;1.17;;
40122;SDS011;25832;45.490;4.912;2023-03-30T07:09:09;2.55;;;1.45;;
40122;SDS011;25832;45.490;4.912;2023-03-30T07:11:36;4.18;;;1.50;;
40122;SDS011;25832;45.490;4.912;2023-03-30T07:14:02;1.90;;;1.25;;
40122;SDS011;25832;45.490;4.912;2023-03-30T07:16:29;4.22;;;1.00;;
40122;SDS011;25832;45.490;4.912;2023-03-30T07:18:55;3.80;;;1.50;;
40122;SDS011;25832;45.490;4.912;2023-03-30T07:21:20;2.92;;;1.20;;
40122;SDS011;25832;45.490;4.912;2023-03-30T07:23:46;6.45;;;1.30;;
40122;SDS011;25832;45.490;4.912;2023-03-30T07:26:12;3.63;;;1.52;;
40122;SDS011;25832;45.490;4.912;2023-03-30T07:28:38;2.58;;;1.20;;
40122;SDS011;25832;45.490;4.912;2023-03-30T07:31:07;3.17;;;1.58;;
40122;SDS011;25832;45.490;4.912;2023-03-30T07:33:34;4.18;;;1.95;;
40122;SDS011;25832;45.490;4.912;2023-03-30T07:36:01;2.63;;;1.23;;
40122;SDS011;25832;45.490;4.912;2023-03-30T07:38:27;4.72;;;1.20;;
40122;SDS011;25832;45.490;4.912;2023-03-30T07:40:53;1.48;;;1.00;;
40122;SDS011;25832;45.490;4.912;2023-03-30T07:43:19;6.18;;;1.23;;
40122;SDS011;25832;45.490;4.912;2023-03-30T07:45:45;2.75;;;1.30;;
40122;SDS011;25832;45.490;4.912;2023-03-30T07:48:11;8.45;;;1.30;;
40122;SDS011;25832;45.490;4.912;2023-03-30T07:50:37;2.55;;;1.23;;
40122;SDS011;25832;45.490;4.912;2023-03-30T07:53:02;2.50;;;1.10;;
40122;SDS011;25832;45.490;4.912;2023-03-30T07:55:28;3.45;;;1.23;;
40122;SDS011;25832;45.490;4.912;2023-03-30T07:57:54;8.50;;;1.67;;
40122;SDS011;25832;45.490;4.912;2023-03-30T08:00:21;2.40;;;1.30;;
40122;SDS011;25832;45.490;4.912;2023-03-30T08:02:47;1.90;;;1.10;;
40122;SDS011;25832;45.490;4.912;2023-03-30T08:05:13;6.32;;;2.00;;
40122;SDS011;25832;45.490;4.912;2023-03-30T08:07:39;5.35;;;1.20;;
40122;SDS011;25832;45.490;4.912;2023-03-30T08:10:05;5.63;;;1.30;;
40122;SDS011;25832;45.490;4.912;2023-03-30T08:12:32;5.65;;;1.23;;
40122;SDS011;25832;45.490;4.912;2023-03-30T08:14:58;5.00;;;1.27;;
40122;SDS011;25832;45.490;4.912;2023-03-30T08:17:25;3.67;;;1.08;;
40122;SDS011;25832;45.490;4.912;2023-03-30T08:19:51;2.05;;;0.95;;
40122;SDS011;25832;45.490;4.912;2023-03-30T08:22:16;5.65;;;1.20;;
40122;SDS011;25832;45.490;4.912;2023-03-30T08:24:42;4.40;;;1.20;;
40122;SDS011;25832;45.490;4.912;2023-03-30T08:27:08;4.68;;;1.02;;
40122;SDS011;25832;45.490;4.912;2023-03-30T08:29:33;3.85;;;1.20;;
40122;SDS011;25832;45.490;4.912;2023-03-30T08:31:59;5.90;;;1.50;;
40122;SDS011;25832;45.490;4.912;2023-03-30T08:34:25;7.68;;;1.30;;
40122;SDS011;25832;45.490;4.912;2023-03-30T08:36:51;2.50;;;0.80;;
40122;SDS011;25832;45.490;4.912;2023-03-30T08:39:17;7.90;;;1.63;;
40122;SDS011;25832;45.490;4.912;2023-03-30T08:41:52;4.25;;;1.15;;
40122;SDS011;25832;45.490;4.912;2023-03-30T08:44:38;4.65;;;1.40;;
40122;SDS011;25832;45.490;4.912;2023-03-30T08:47:11;6.80;;;1.63;;
40122;SDS011;25832;45.490;4.912;2023-03-30T08:49:45;2.10;;;0.95;;
40122;SDS011;25832;45.490;4.912;2023-03-30T08:52:21;3.10;;;1.05;;
40122;SDS011;25832;45.490;4.912;2023-03-30T08:54:49;2.50;;;1.08;;
40122;SDS011;25832;45.490;4.912;2023-03-30T09:00:32;3.22;;;1.20;;
40122;SDS011;25832;45.490;4.912;2023-03-30T09:03:29;5.60;;;1.35;;
40122;SDS011;25832;45.490;4.912;2023-03-30T09:06:05;6.95;;;1.83;;
40122;SDS011;25832;45.490;4.912;2023-03-30T09:08:38;2.05;;;0.80;;
40122;SDS011;25832;45.490;4.912;2023-03-30T09:11:08;3.25;;;1.60;;
40122;SDS011;25832;45.490;4.912;2023-03-30T09:13:38;9.52;;;1.65;;
40122;SDS011;25832;45.490;4.912;2023-03-30T09:16:10;1.70;;;1.20;;
40122;SDS011;25832;45.490;4.912;2023-03-30T09:18:46;1.58;;;0.90;;
40122;SDS011;25832;45.490;4.912;2023-03-30T09:21:17;3.33;;;1.38;;
40122;SDS011;25832;45.490;4.912;2023-03-30T09:23:45;7.90;;;1.20;;
40122;SDS011;25832;45.490;4.912;2023-03-30T09:26:20;3.63;;;1.13;;
40122;SDS011;25832;45.490;4.912;2023-03-30T09:31:39;2.92;;;1.23;;
40122;SDS011;25832;45.490;4.912;2023-03-30T09:37:33;2.20;;;1.20;;
40122;SDS011;25832;45.490;4.912;2023-03-30T09:40:01;2.40;;;1.17;;
40122;SDS011;25832;45.490;4.912;2023-03-30T09:45:31;4.32;;;1.35;;
40122;SDS011;25832;45.490;4.912;2023-03-30T09:48:05;4.88;;;1.38;;
40122;SDS011;25832;45.490;4.912;2023-03-30T09:50:36;2.47;;;1.27;;
40122;SDS011;25832;45.490;4.912;2023-03-30T09:53:23;4.53;;;1.50;;
40122;SDS011;25832;45.490;4.912;2023-03-30T09:55:54;3.40;;;1.40;;
40122;SDS011;25832;45.490;4.912;2023-03-30T10:01:03;3.20;;;1.45;;
40122;SDS011;25832;45.490;4.912;2023-03-30T10:03:37;7.40;;;1.80;;
40122;SDS011;25832;45.490;4.912;2023-03-30T10:06:09;2.60;;;1.30;;
40122;SDS011;25832;45.490;4.912;2023-03-30T10:14:30;4.75;;;1.60;;
40122;SDS011;25832;45.490;4.912;2023-03-30T10:16:58;3.88;;;1.42;;
40122;SDS011;25832;45.490;4.912;2023-03-30T10:19:26;5.53;;;1.80;;
40122;SDS011;25832;45.490;4.912;2023-03-30T10:21:53;4.85;;;1.40;;
40122;SDS011;25832;45.490;4.912;2023-03-30T10:24:28;5.28;;;1.83;;
40122;SDS011;25832;45.490;4.912;2023-03-30T10:26:56;3.42;;;1.30;;
40122;SDS011;25832;45.490;4.912;2023-03-30T10:29:28;7.13;;;1.80;;
40122;SDS011;25832;45.490;4.912;2023-03-30T10:32:12;6.95;;;1.10;;
40122;SDS011;25832;45.490;4.912;2023-03-30T10:34:43;5.13;;;1.30;;
40122;SDS011;25832;45.490;4.912;2023-03-30T10:37:59;4.00;;;1.70;;
40122;SDS011;25832;45.490;4.912;2023-03-30T10:40:08;4.55;;;1.30;;
40122;SDS011;25832;45.490;4.912;2023-03-30T10:42:43;6.43;;;1.60;;
40122;SDS011;25832;45.490;4.912;2023-03-30T10:45:15;8.60;;;1.52;;
40122;SDS011;25832;45.490;4.912;2023-03-30T10:50:57;4.38;;;1.60;;
40122;SDS011;25832;45.490;4.912;2023-03-30T10:53:38;5.68;;;1.65;;
40122;SDS011;25832;45.490;4.912;2023-03-30T10:56:47;6.60;;;1.70;;
40122;SDS011;25832;45.490;4.912;2023-03-30T11:01:56;7.88;;;1.70;;
40122;SDS011;25832;45.490;4.912;2023-03-30T11:04:39;3.60;;;1.73;;
40122;SDS011;25832;45.490;4.912;2023-03-30T11:07:50;4.75;;;1.67;;
40122;SDS011;25832;45.490;4.912;2023-03-30T11:10:21;8.40;;;1.90;;
40122;SDS011;25832;45.490;4.912;2023-03-30T11:12:54;6.03;;;2.13;;
40122;SDS011;25832;45.490;4.912;2023-03-30T11:15:50;4.70;;;1.80;;
40122;SDS011;25832;45.490;4.912;2023-03-30T11:21:14;6.75;;;1.85;;
40122;SDS011;25832;45.490;4.912;2023-03-30T11:23:58;4.75;;;1.52;;
40122;SDS011;25832;45.490;4.912;2023-03-30T11:37:32;5.25;;;2.00;;
40122;SDS011;25832;45.490;4.912;2023-03-30T11:40:19;5.82;;;2.10;;
40122;SDS011;25832;45.490;4.912;2023-03-30T11:42:48;8.88;;;1.80;;
40122;SDS011;25832;45.490;4.912;2023-03-30T11:53:25;6.03;;;1.80;;
40122;SDS011;25832;45.490;4.912;2023-03-30T11:59:05;9.05;;;2.78;;
40122;SDS011;25832;45.490;4.912;2023-03-30T12:04:34;4.90;;;2.08;;
40122;SDS011;25832;45.490;4.912;2023-03-30T12:07:09;6.68;;;2.38;;
40122;SDS011;25832;45.490;4.912;2023-03-30T12:09:49;6.40;;;2.05;;
40122;SDS011;25832;45.490;4.912;2023-03-30T12:12:24;6.72;;;2.10;;
40122;SDS011;25832;45.490;4.912;2023-03-30T12:23:15;3.17;;;2.20;;
40122;SDS011;25832;45.490;4.912;2023-03-30T12:31:17;9.88;;;2.90;;
40122;SDS011;25832;45.490;4.912;2023-03-30T12:33:47;5.60;;;2.55;;
40122;SDS011;25832;45.490;4.912;2023-03-30T12:39:10;5.25;;;1.60;;
40122;SDS011;25832;45.490;4.912;2023-03-30T12:42:21;9.93;;;2.70;;
40122;SDS011;25832;45.490;4.912;2023-03-30T12:53:11;10.00;;;1.67;;
40122;SDS011;25832;45.490;4.912;2023-03-30T13:04:24;6.95;;;2.35;;
40122;SDS011;25832;45.490;4.912;2023-03-30T13:07:02;7.20;;;2.30;;
40122;SDS011;25832;45.490;4.912;2023-03-30T13:09:34;4.63;;;2.20;;
40122;SDS011;25832;45.490;4.912;2023-03-30T13:12:23;9.70;;;3.38;;
40122;SDS011;25832;45.490;4.912;2023-03-30T13:14:58;6.60;;;2.22;;
40122;SDS011;25832;45.490;4.912;2023-03-30T13:20:19;5.65;;;2.75;;
40122;SDS011;25832;45.490;4.912;2023-03-30T13:22:58;9.90;;;2.33;;
40122;SDS011;25832;45.490;4.912;2023-03-30T13:28:34;9.57;;;2.45;;
40122;SDS011;25832;45.490;4.912;2023-03-30T13:34:00;5.30;;;2.38;;
40122;SDS011;25832;45.490;4.912;2023-03-30T13:36:38;3.90;;;1.70;;
40122;SDS011;25832;45.490;4.912;2023-03-30T13:45:00;9.65;;;2.50;;
40122;SDS011;25832;45.490;4.912;2023-03-30T13:47:46;4.20;;;2.08;;
40122;SDS011;25832;45.490;4.912;2023-03-30T13:52:47;6.82;;;2.20;;
40122;SDS011;25832;45.490;4.912;2023-03-30T13:55:16;5.57;;;2.28;;
40122;SDS011;25832;45.490;4.912;2023-03-30T13:57:50;7.00;;;2.47;;
40122;SDS011;25832;45.490;4.912;2023-03-30T14:08:52;5.90;;;2.47;;
40122;SDS011;25832;45.490;4.912;2023-03-30T14:11:26;7.07;;;2.40;;
40122;SDS011;25832;45.490;4.912;2023-03-30T14:13:56;12.18;;;2.80;;
40122;SDS011;25832;45.490;4.912;2023-03-30T14:16:23;6.10;;;2.90;;
40122;SDS011;25832;45.490;4.912;2023-03-30T14:18:51;9.65;;;2.30;;
40122;SDS011;25832;45.490;4.912;2023-03-30T14:21:38;4.45;;;1.65;;
40122;SDS011;25832;45.490;4.912;2023-03-30T14:26:39;10.93;;;2.60;;
40122;SDS011;25832;45.490;4.912;2023-03-30T14:29:09;6.25;;;2.88;;
40122;SDS011;25832;45.490;4.912;2023-03-30T14:31:39;8.05;;;3.03;;
40122;SDS011;25832;45.490;4.912;2023-03-30T14:34:25;6.57;;;2.60;;
40122;SDS011;25832;45.490;4.912;2023-03-30T14:36:54;7.65;;;2.15;;
40122;SDS011;25832;45.490;4.912;2023-03-30T14:39:24;5.88;;;2.50;;
40122;SDS011;25832;45.490;4.912;2023-03-30T14:41:50;6.75;;;2.63;;
40122;SDS011;25832;45.490;4.912;2023-03-30T14:44:18;7.55;;;2.20;;
40122;SDS011;25832;45.490;4.912;2023-03-30T14:46:48;4.72;;;2.25;;
40122;SDS011;25832;45.490;4.912;2023-03-30T14:51:46;8.90;;;2.42;;
40122;SDS011;25832;45.490;4.912;2023-03-30T14:54:16;8.02;;;2.35;;
40122;SDS011;25832;45.490;4.912;2023-03-30T14:56:46;10.13;;;2.63;;
40122;SDS011;25832;45.490;4.912;2023-03-30T14:59:23;5.43;;;2.00;;
40122;SDS011;25832;45.490;4.912;2023-03-30T15:01:51;5.07;;;2.08;;
40122;SDS011;25832;45.490;4.912;2023-03-30T15:04:18;6.55;;;2.40;;
40122;SDS011;25832;45.490;4.912;2023-03-30T15:06:46;5.43;;;2.25;;
40122;SDS011;25832;45.490;4.912;2023-03-30T15:09:16;8.63;;;2.47;;
40122;SDS011;25832;45.490;4.912;2023-03-30T15:11:44;6.75;;;1.98;;
40122;SDS011;25832;45.490;4.912;2023-03-30T15:14:16;7.72;;;2.63;;
40122;SDS011;25832;45.490;4.912;2023-03-30T15:16:45;8.70;;;2.90;;
40122;SDS011;25832;45.490;4.912;2023-03-30T15:19:33;8.23;;;2.47;;
40122;SDS011;25832;45.490;4.912;2023-03-30T15:22:02;9.20;;;2.47;;
40122;SDS011;25832;45.490;4.912;2023-03-30T15:24:33;7.50;;;2.50;;
40122;SDS011;25832;45.490;4.912;2023-03-30T15:27:01;6.63;;;2.38;;
40122;SDS011;25832;45.490;4.912;2023-03-30T15:29:30;7.18;;;2.40;;
40122;SDS011;25832;45.490;4.912;2023-03-30T15:32:05;7.70;;;2.63;;
40122;SDS011;25832;45.490;4.912;2023-03-30T15:34:46;6.03;;;3.50;;
40122;SDS011;25832;45.490;4.912;2023-03-30T15:37:28;5.35;;;2.90;;
40122;SDS011;25832;45.490;4.912;2023-03-30T15:39:56;8.80;;;2.80;;
40122;SDS011;25832;45.490;4.912;2023-03-30T15:42:27;7.18;;;3.15;;
40122;SDS011;25832;45.490;4.912;2023-03-30T15:47:49;10.70;;;3.22;;
40122;SDS011;25832;45.490;4.912;2023-03-30T15:50:23;11.73;;;2.80;;
40122;SDS011;25832;45.490;4.912;2023-03-30T15:52:50;6.50;;;2.95;;
40122;SDS011;25832;45.490;4.912;2023-03-30T15:55:27;13.05;;;3.25;;
40122;SDS011;25832;45.490;4.912;2023-03-30T15:57:56;10.60;;;4.13;;
40122;SDS011;25832;45.490;4.912;2023-03-30T16:00:23;6.63;;;2.30;;
40122;SDS011;25832;45.490;4.912;2023-03-30T16:02:54;3.28;;;2.40;;
40122;SDS011;25832;45.490;4.912;2023-03-30T16:05:26;10.05;;;3.58;;
40122;SDS011;25832;45.490;4.912;2023-03-30T16:07:57;8.85;;;3.88;;
40122;SDS011;25832;45.490;4.912;2023-03-30T16:10:24;7.78;;;2.85;;
40122;SDS011;25832;45.490;4.912;2023-03-30T16:12:55;6.47;;;2.45;;
40122;SDS011;25832;45.490;4.912;2023-03-30T16:15:22;7.15;;;2.42;;
40122;SDS011;25832;45.490;4.912;2023-03-30T16:17:49;11.25;;;3.00;;
40122;SDS011;25832;45.490;4.912;2023-03-30T16:22:41;4.10;;;2.30;;
40122;SDS011;25832;45.490;4.912;2023-03-30T16:25:08;8.05;;;2.75;;
40122;SDS011;25832;45.490;4.912;2023-03-30T16:27:34;5.68;;;2.72;;
40122;SDS011;25832;45.490;4.912;2023-03-30T16:30:00;8.98;;;3.13;;
40122;SDS011;25832;45.490;4.912;2023-03-30T16:32:34;6.10;;;2.72;;
40122;SDS011;25832;45.490;4.912;2023-03-30T16:35:00;8.35;;;3.22;;
40122;SDS011;25832;45.490;4.912;2023-03-30T16:37:25;7.70;;;3.42;;
40122;SDS011;25832;45.490;4.912;2023-03-30T16:39:51;6.70;;;2.75;;
40122;SDS011;25832;45.490;4.912;2023-03-30T16:42:17;8.15;;;2.63;;
40122;SDS011;25832;45.490;4.912;2023-03-30T16:44:42;7.13;;;3.15;;
40122;SDS011;25832;45.490;4.912;2023-03-30T16:47:08;9.82;;;3.45;;
40122;SDS011;25832;45.490;4.912;2023-03-30T16:49:34;7.45;;;3.83;;
40122;SDS011;25832;45.490;4.912;2023-03-30T16:51:59;7.70;;;3.13;;
40122;SDS011;25832;45.490;4.912;2023-03-30T16:54:26;7.93;;;3.20;;
40122;SDS011;25832;45.490;4.912;2023-03-30T16:56:52;8.88;;;3.42;;
40122;SDS011;25832;45.490;4.912;2023-03-30T16:59:22;9.10;;;2.85;;
40122;SDS011;25832;45.490;4.912;2023-03-30T17:01:51;9.07;;;3.67;;
40122;SDS011;25832;45.490;4.912;2023-03-30T17:04:17;5.82;;;2.83;;
40122;SDS011;25832;45.490;4.912;2023-03-30T17:06:43;6.65;;;3.95;;
40122;SDS011;25832;45.490;4.912;2023-03-30T17:09:11;7.90;;;2.85;;
40122;SDS011;25832;45.490;4.912;2023-03-30T17:11:41;14.23;;;3.22;;
40122;SDS011;25832;45.490;4.912;2023-03-30T17:14:11;6.10;;;2.78;;
40122;SDS011;25832;45.490;4.912;2023-03-30T17:16:37;11.52;;;2.75;;
40122;SDS011;25832;45.490;4.912;2023-03-30T17:19:03;6.13;;;3.40;;
40122;SDS011;25832;45.490;4.912;2023-03-30T17:21:30;7.32;;;3.33;;
40122;SDS011;25832;45.490;4.912;2023-03-30T17:23:56;6.63;;;3.13;;
40122;SDS011;25832;45.490;4.912;2023-03-30T17:26:21;11.48;;;3.35;;
40122;SDS011;25832;45.490;4.912;2023-03-30T17:28:48;6.93;;;2.67;;
40122;SDS011;25832;45.490;4.912;2023-03-30T17:31:15;6.80;;;2.95;;
40122;SDS011;25832;45.490;4.912;2023-03-30T17:33:42;5.38;;;2.47;;
40122;SDS011;25832;45.490;4.912;2023-03-30T17:38:43;8.18;;;2.40;;
40122;SDS011;25832;45.490;4.912;2023-03-30T17:41:12;4.85;;;2.42;;
40122;SDS011;25832;45.490;4.912;2023-03-30T17:43:40;9.27;;;3.20;;
40122;SDS011;25832;45.490;4.912;2023-03-30T17:46:09;7.47;;;2.95;;
40122;SDS011;25832;45.490;4.912;2023-03-30T17:48:36;5.13;;;2.70;;
40122;SDS011;25832;45.490;4.912;2023-03-30T17:51:03;6.13;;;2.95;;
40122;SDS011;25832;45.490;4.912;2023-03-30T17:53:29;11.43;;;3.40;;
40122;SDS011;25832;45.490;4.912;2023-03-30T17:55:55;10.10;;;3.58;;